sensor_id;sensor_type;location;lat;lon;timestamp;P1;durP1;ratioP1;P2;durP2;ratioP2
10260;SDS011;5175;42.606;23.388;2023-05-07T00:01:36;7.10;;;5.20;;
10260;SDS011;5175;42.606;23.388;2023-05-07T00:04:03;6.63;;;5.23;;
10260;SDS011;5175;42.606;23.388;2023-05-07T00:06:30;6.33;;;5.00;;
10260;SDS011;5175;42.606;23.388;2023-05-07T00:08:56;5.67;;;5.07;;
10260;SDS011;5175;42.606;23.388;2023-05-07T00:11:25;6.13;;;5.00;;
10260;SDS011;5175;42.606;23.388;2023-05-07T00:13:52;5.30;;;4.80;;
10260;SDS011;5175;42.606;23.388;2023-05-07T00:16:21;5.40;;;4.87;;
10260;SDS011;5175;42.606;23.388;2023-05-07T00:18:47;7.67;;;5.40;;
10260;SDS011;5175;42.606;23.388;2023-05-07T00:21:14;5.80;;;5.20;;
10260;SDS011;5175;42.606;23.388;2023-05-07T00:23:41;6.03;;;5.43;;
10260;SDS011;5175;42.606;23.388;2023-05-07T00:26:08;6.43;;;5.33;;
10260;SDS011;5175;42.606;23.388;2023-05-07T00:28:34;6.20;;;5.33;;
10260;SDS011;5175;42.606;23.388;2023-05-07T00:31:01;6.30;;;5.67;;
10260;SDS011;5175;42.606;23.388;2023-05-07T00:33:29;6.43;;;5.07;;
10260;SDS011;5175;42.606;23.388;2023-05-07T00:35:56;8.73;;;5.20;;
10260;SDS011;5175;42.606;23.388;2023-05-07T00:38:23;6.77;;;5.43;;
10260;SDS011;5175;42.606;23.388;2023-05-07T00:40:50;7.73;;;5.93;;
10260;SDS011;5175;42.606;23.388;2023-05-07T00:43:17;7.00;;;6.30;;
10260;SDS011;5175;42.606;23.388;2023-05-07T00:45:44;8.60;;;6.63;;
10260;SDS011;5175;42.606;23.388;2023-05-07T00:48:10;8.10;;;7.27;;
10260;SDS011;5175;42.606;23.388;2023-05-07T00:50:39;9.47;;;7.50;;
10260;SDS011;5175;42.606;23.388;2023-05-07T00:53:06;10.17;;;7.83;;
10260;SDS011;5175;42.606;23.388;2023-05-07T00:55:33;10.07;;;6.83;;
10260;SDS011;5175;42.606;23.388;2023-05-07T00:58:00;9.10;;;8.13;;
10260;SDS011;5175;42.606;23.388;2023-05-07T01:00:26;8.97;;;7.67;;
10260;SDS011;5175;42.606;23.388;2023-05-07T01:02:53;7.23;;;6.53;;
10260;SDS011;5175;42.606;23.388;2023-05-07T01:05:20;6.47;;;5.70;;
10260;SDS011;5175;42.606;23.388;2023-05-07T01:07:51;7.13;;;6.00;;
10260;SDS011;5175;42.606;23.388;2023-05-07T01:10:19;7.70;;;6.77;;
10260;SDS011;5175;42.606;23.388;2023-05-07T01:12:47;6.13;;;5.63;;
10260;SDS011;5175;42.606;23.388;2023-05-07T01:15:16;7.97;;;6.10;;
10260;SDS011;5175;42.606;23.388;2023-05-07T01:17:44;6.47;;;5.40;;
10260;SDS011;5175;42.606;23.388;2023-05-07T01:20:11;6.50;;;5.90;;
10260;SDS011;5175;42.606;23.388;2023-05-07T01:22:40;7.07;;;6.37;;
10260;SDS011;5175;42.606;23.388;2023-05-07T01:25:07;7.13;;;5.83;;
10260;SDS011;5175;42.606;23.388;2023-05-07T01:27:34;7.77;;;6.63;;
10260;SDS011;5175;42.606;23.388;2023-05-07T01:30:02;7.37;;;6.07;;
10260;SDS011;5175;42.606;23.388;2023-05-07T01:32:31;8.77;;;6.53;;
10260;SDS011;5175;42.606;23.388;2023-05-07T01:35:00;8.50;;;7.70;;
10260;SDS011;5175;42.606;23.388;2023-05-07T01:37:29;9.53;;;8.63;;
10260;SDS011;5175;42.606;23.388;2023-05-07T01:39:57;9.77;;;8.87;;
10260;SDS011;5175;42.606;23.388;2023-05-07T01:42:24;9.20;;;8.40;;
10260;SDS011;5175;42.606;23.388;2023-05-07T01:44:51;9.60;;;8.53;;
10260;SDS011;5175;42.606;23.388;2023-05-07T01:47:18;9.83;;;8.47;;
10260;SDS011;5175;42.606;23.388;2023-05-07T01:49:46;8.73;;;7.83;;
10260;SDS011;5175;42.606;23.388;2023-05-07T01:52:13;9.10;;;8.20;;
10260;SDS011;5175;42.606;23.388;2023-05-07T01:54:40;8.80;;;8.00;;
10260;SDS011;5175;42.606;23.388;2023-05-07T01:57:09;11.20;;;9.40;;
10260;SDS011;5175;42.606;23.388;2023-05-07T01:59:35;10.07;;;9.07;;
10260;SDS011;5175;42.606;23.388;2023-05-07T02:02:05;10.10;;;9.10;;
10260;SDS011;5175;42.606;23.388;2023-05-07T02:04:31;10.47;;;8.90;;
10260;SDS011;5175;42.606;23.388;2023-05-07T02:06:58;9.80;;;8.87;;
10260;SDS011;5175;42.606;23.388;2023-05-07T02:09:25;10.17;;;9.17;;
10260;SDS011;5175;42.606;23.388;2023-05-07T02:11:52;10.37;;;9.37;;
10260;SDS011;5175;42.606;23.388;2023-05-07T02:14:20;10.63;;;9.40;;
10260;SDS011;5175;42.606;23.388;2023-05-07T02:16:47;10.30;;;9.23;;
10260;SDS011;5175;42.606;23.388;2023-05-07T02:19:13;9.67;;;8.77;;
10260;SDS011;5175;42.606;23.388;2023-05-07T02:21:41;9.97;;;9.00;;
10260;SDS011;5175;42.606;23.388;2023-05-07T02:24:08;9.53;;;8.73;;
10260;SDS011;5175;42.606;23.388;2023-05-07T02:26:35;10.23;;;9.33;;
10260;SDS011;5175;42.606;23.388;2023-05-07T02:29:01;10.20;;;9.17;;
10260;SDS011;5175;42.606;23.388;2023-05-07T02:31:30;10.00;;;9.00;;
10260;SDS011;5175;42.606;23.388;2023-05-07T02:33:58;9.50;;;8.50;;
10260;SDS011;5175;42.606;23.388;2023-05-07T02:36:25;9.03;;;8.13;;
10260;SDS011;5175;42.606;23.388;2023-05-07T02:38:52;9.77;;;8.77;;
10260;SDS011;5175;42.606;23.388;2023-05-07T02:41:20;9.73;;;8.73;;
10260;SDS011;5175;42.606;23.388;2023-05-07T02:43:46;10.93;;;9.83;;
10260;SDS011;5175;42.606;23.388;2023-05-07T02:46:13;10.87;;;9.77;;
10260;SDS011;5175;42.606;23.388;2023-05-07T02:48:42;13.77;;;10.27;;
10260;SDS011;5175;42.606;23.388;2023-05-07T02:51:09;12.40;;;10.83;;
10260;SDS011;5175;42.606;23.388;2023-05-07T02:53:35;12.77;;;11.50;;
10260;SDS011;5175;42.606;23.388;2023-05-07T02:56:02;12.87;;;11.50;;
10260;SDS011;5175;42.606;23.388;2023-05-07T02:58:30;14.73;;;11.57;;
10260;SDS011;5175;42.606;23.388;2023-05-07T03:00:57;14.47;;;13.03;;
10260;SDS011;5175;42.606;23.388;2023-05-07T03:03:24;15.13;;;12.27;;
10260;SDS011;5175;42.606;23.388;2023-05-07T03:05:52;15.00;;;13.03;;
10260;SDS011;5175;42.606;23.388;2023-05-07T03:08:19;14.53;;;12.90;;
10260;SDS011;5175;42.606;23.388;2023-05-07T03:10:45;14.83;;;13.33;;
10260;SDS011;5175;42.606;23.388;2023-05-07T03:13:13;14.83;;;13.33;;
10260;SDS011;5175;42.606;23.388;2023-05-07T03:15:39;16.87;;;14.60;;
10260;SDS011;5175;42.606;23.388;2023-05-07T03:18:06;15.50;;;13.87;;
10260;SDS011;5175;42.606;23.388;2023-05-07T03:20:33;15.60;;;13.90;;
10260;SDS011;5175;42.606;23.388;2023-05-07T03:23:02;15.60;;;13.87;;
10260;SDS011;5175;42.606;23.388;2023-05-07T03:25:29;14.87;;;13.43;;
10260;SDS011;5175;42.606;23.388;2023-05-07T03:27:56;14.50;;;13.00;;
10260;SDS011;5175;42.606;23.388;2023-05-07T03:30:23;13.83;;;12.43;;
10260;SDS011;5175;42.606;23.388;2023-05-07T03:32:50;14.97;;;13.37;;
10260;SDS011;5175;42.606;23.388;2023-05-07T03:35:17;14.67;;;13.07;;
10260;SDS011;5175;42.606;23.388;2023-05-07T03:37:44;15.37;;;13.47;;
10260;SDS011;5175;42.606;23.388;2023-05-07T03:40:12;15.67;;;14.10;;
10260;SDS011;5175;42.606;23.388;2023-05-07T03:42:39;15.83;;;13.83;;
10260;SDS011;5175;42.606;23.388;2023-05-07T03:45:06;15.83;;;14.13;;
10260;SDS011;5175;42.606;23.388;2023-05-07T03:47:34;15.50;;;13.90;;
10260;SDS011;5175;42.606;23.388;2023-05-07T03:50:00;15.37;;;13.87;;
10260;SDS011;5175;42.606;23.388;2023-05-07T03:52:27;15.00;;;13.40;;
10260;SDS011;5175;42.606;23.388;2023-05-07T03:54:54;15.53;;;13.83;;
10260;SDS011;5175;42.606;23.388;2023-05-07T03:57:22;14.63;;;12.27;;
10260;SDS011;5175;42.606;23.388;2023-05-07T03:59:49;14.67;;;13.23;;
10260;SDS011;5175;42.606;23.388;2023-05-07T04:02:15;13.93;;;12.57;;
10260;SDS011;5175;42.606;23.388;2023-05-07T04:04:42;14.30;;;12.80;;
10260;SDS011;5175;42.606;23.388;2023-05-07T04:07:09;16.97;;;13.43;;
10260;SDS011;5175;42.606;23.388;2023-05-07T04:09:36;15.80;;;13.77;;
10260;SDS011;5175;42.606;23.388;2023-05-07T04:12:03;14.93;;;13.43;;
10260;SDS011;5175;42.606;23.388;2023-05-07T04:14:32;15.30;;;13.80;;
10260;SDS011;5175;42.606;23.388;2023-05-07T04:16:58;15.97;;;14.10;;
10260;SDS011;5175;42.606;23.388;2023-05-07T04:19:25;17.13;;;15.33;;
10260;SDS011;5175;42.606;23.388;2023-05-07T04:21:52;15.50;;;13.90;;
10260;SDS011;5175;42.606;23.388;2023-05-07T04:24:18;17.77;;;14.70;;
10260;SDS011;5175;42.606;23.388;2023-05-07T04:26:45;15.53;;;13.90;;
10260;SDS011;5175;42.606;23.388;2023-05-07T04:29:12;17.50;;;15.70;;
10260;SDS011;5175;42.606;23.388;2023-05-07T04:31:40;16.93;;;15.10;;
10260;SDS011;5175;42.606;23.388;2023-05-07T04:34:09;16.60;;;14.90;;
10260;SDS011;5175;42.606;23.388;2023-05-07T04:36:36;17.27;;;14.57;;
10260;SDS011;5175;42.606;23.388;2023-05-07T04:39:03;16.47;;;14.73;;
10260;SDS011;5175;42.606;23.388;2023-05-07T04:41:30;16.73;;;15.03;;
10260;SDS011;5175;42.606;23.388;2023-05-07T04:43:57;16.10;;;14.40;;
10260;SDS011;5175;42.606;23.388;2023-05-07T04:46:24;15.77;;;14.07;;
10260;SDS011;5175;42.606;23.388;2023-05-07T04:48:52;17.07;;;14.10;;
10260;SDS011;5175;42.606;23.388;2023-05-07T04:51:19;16.50;;;14.30;;
10260;SDS011;5175;42.606;23.388;2023-05-07T04:53:45;15.53;;;13.83;;
10260;SDS011;5175;42.606;23.388;2023-05-07T04:56:12;15.90;;;14.30;;
10260;SDS011;5175;42.606;23.388;2023-05-07T04:58:39;15.80;;;14.20;;
10260;SDS011;5175;42.606;23.388;2023-05-07T05:01:06;14.57;;;13.07;;
10260;SDS011;5175;42.606;23.388;2023-05-07T05:03:33;14.63;;;13.13;;
10260;SDS011;5175;42.606;23.388;2023-05-07T05:06:01;15.07;;;13.20;;
10260;SDS011;5175;42.606;23.388;2023-05-07T05:08:29;15.10;;;13.50;;
10260;SDS011;5175;42.606;23.388;2023-05-07T05:10:56;15.10;;;12.77;;
10260;SDS011;5175;42.606;23.388;2023-05-07T05:13:23;14.53;;;13.03;;
10260;SDS011;5175;42.606;23.388;2023-05-07T05:15:50;14.30;;;12.90;;
10260;SDS011;5175;42.606;23.388;2023-05-07T05:18:16;14.33;;;12.83;;
10260;SDS011;5175;42.606;23.388;2023-05-07T05:20:43;13.67;;;11.90;;
10260;SDS011;5175;42.606;23.388;2023-05-07T05:23:11;13.70;;;12.17;;
10260;SDS011;5175;42.606;23.388;2023-05-07T05:25:38;14.47;;;12.97;;
10260;SDS011;5175;42.606;23.388;2023-05-07T05:28:05;12.80;;;11.50;;
10260;SDS011;5175;42.606;23.388;2023-05-07T05:30:32;14.47;;;12.37;;
10260;SDS011;5175;42.606;23.388;2023-05-07T05:32:59;13.77;;;11.97;;
10260;SDS011;5175;42.606;23.388;2023-05-07T05:35:25;13.67;;;12.27;;
10260;SDS011;5175;42.606;23.388;2023-05-07T05:37:52;13.50;;;12.10;;
10260;SDS011;5175;42.606;23.388;2023-05-07T05:40:23;14.07;;;11.70;;
10260;SDS011;5175;42.606;23.388;2023-05-07T05:42:50;13.27;;;11.27;;
10260;SDS011;5175;42.606;23.388;2023-05-07T05:45:16;12.43;;;11.03;;
10260;SDS011;5175;42.606;23.388;2023-05-07T05:47:43;12.57;;;11.27;;
10260;SDS011;5175;42.606;23.388;2023-05-07T05:50:10;11.97;;;10.83;;
10260;SDS011;5175;42.606;23.388;2023-05-07T05:52:37;10.77;;;9.63;;
10260;SDS011;5175;42.606;23.388;2023-05-07T05:55:04;11.63;;;10.07;;
10260;SDS011;5175;42.606;23.388;2023-05-07T05:57:33;11.93;;;10.83;;
10260;SDS011;5175;42.606;23.388;2023-05-07T06:00:00;11.30;;;10.10;;
10260;SDS011;5175;42.606;23.388;2023-05-07T06:02:27;11.47;;;10.27;;
10260;SDS011;5175;42.606;23.388;2023-05-07T06:04:54;10.83;;;9.73;;
10260;SDS011;5175;42.606;23.388;2023-05-07T06:07:21;11.33;;;10.13;;
10260;SDS011;5175;42.606;23.388;2023-05-07T06:09:47;10.80;;;9.70;;
10260;SDS011;5175;42.606;23.388;2023-05-07T06:12:14;11.90;;;10.50;;
10260;SDS011;5175;42.606;23.388;2023-05-07T06:14:43;11.27;;;10.17;;
10260;SDS011;5175;42.606;23.388;2023-05-07T06:17:10;11.30;;;10.23;;
10260;SDS011;5175;42.606;23.388;2023-05-07T06:19:37;11.63;;;10.13;;
10260;SDS011;5175;42.606;23.388;2023-05-07T06:22:04;10.40;;;9.30;;
10260;SDS011;5175;42.606;23.388;2023-05-07T06:24:30;11.17;;;10.07;;
10260;SDS011;5175;42.606;23.388;2023-05-07T06:26:57;10.60;;;9.60;;
10260;SDS011;5175;42.606;23.388;2023-05-07T06:29:24;12.17;;;10.97;;
10260;SDS011;5175;42.606;23.388;2023-05-07T06:31:53;11.50;;;10.37;;
10260;SDS011;5175;42.606;23.388;2023-05-07T06:34:20;10.90;;;9.63;;
10260;SDS011;5175;42.606;23.388;2023-05-07T06:36:46;13.05;;;10.45;;
10260;SDS011;5175;42.606;23.388;2023-05-07T06:39:13;11.05;;;10.05;;
10260;SDS011;5175;42.606;23.388;2023-05-07T06:41:40;11.37;;;10.13;;
10260;SDS011;5175;42.606;23.388;2023-05-07T06:44:07;11.00;;;9.90;;
10260;SDS011;5175;42.606;23.388;2023-05-07T06:46:33;10.02;;;9.02;;
10260;SDS011;5175;42.606;23.388;2023-05-07T06:49:02;10.82;;;9.73;;
10260;SDS011;5175;42.606;23.388;2023-05-07T06:51:28;10.32;;;9.32;;
10260;SDS011;5175;42.606;23.388;2023-05-07T06:53:55;11.75;;;9.65;;
10260;SDS011;5175;42.606;23.388;2023-05-07T06:56:22;10.43;;;9.25;;
10260;SDS011;5175;42.606;23.388;2023-05-07T06:58:49;9.88;;;9.02;;
10260;SDS011;5175;42.606;23.388;2023-05-07T07:01:16;10.00;;;8.95;;
10260;SDS011;5175;42.606;23.388;2023-05-07T07:03:43;9.68;;;8.55;;
10260;SDS011;5175;42.606;23.388;2023-05-07T07:06:11;9.63;;;8.77;;
10260;SDS011;5175;42.606;23.388;2023-05-07T07:08:37;9.77;;;8.77;;
10260;SDS011;5175;42.606;23.388;2023-05-07T07:11:04;10.07;;;9.00;;
10260;SDS011;5175;42.606;23.388;2023-05-07T07:13:31;9.68;;;8.68;;
10260;SDS011;5175;42.606;23.388;2023-05-07T07:15:59;11.63;;;9.32;;
10260;SDS011;5175;42.606;23.388;2023-05-07T07:18:26;11.30;;;10.20;;
10260;SDS011;5175;42.606;23.388;2023-05-07T07:20:53;14.05;;;9.13;;
10260;SDS011;5175;42.606;23.388;2023-05-07T07:23:21;12.88;;;11.45;;
10260;SDS011;5175;42.606;23.388;2023-05-07T07:25:47;9.07;;;8.18;;
10260;SDS011;5175;42.606;23.388;2023-05-07T07:28:14;9.45;;;8.55;;
10260;SDS011;5175;42.606;23.388;2023-05-07T07:30:41;9.30;;;8.30;;
10260;SDS011;5175;42.606;23.388;2023-05-07T07:33:08;9.38;;;8.45;;
10260;SDS011;5175;42.606;23.388;2023-05-07T07:35:34;10.50;;;8.30;;
10260;SDS011;5175;42.606;23.388;2023-05-07T07:38:01;8.57;;;7.55;;
10260;SDS011;5175;42.606;23.388;2023-05-07T07:40:29;8.50;;;7.70;;
10260;SDS011;5175;42.606;23.388;2023-05-07T07:42:56;8.85;;;7.95;;
10260;SDS011;5175;42.606;23.388;2023-05-07T07:45:23;8.52;;;7.68;;
10260;SDS011;5175;42.606;23.388;2023-05-07T07:47:50;9.10;;;8.20;;
10260;SDS011;5175;42.606;23.388;2023-05-07T07:50:17;9.75;;;7.97;;
10260;SDS011;5175;42.606;23.388;2023-05-07T07:52:44;8.60;;;7.30;;
10260;SDS011;5175;42.606;23.388;2023-05-07T07:55:11;8.90;;;8.00;;
10260;SDS011;5175;42.606;23.388;2023-05-07T07:57:40;9.75;;;8.68;;
10260;SDS011;5175;42.606;23.388;2023-05-07T08:00:07;9.85;;;8.20;;
10260;SDS011;5175;42.606;23.388;2023-05-07T08:02:35;9.52;;;8.52;;
10260;SDS011;5175;42.606;23.388;2023-05-07T08:05:01;10.02;;;9.05;;
10260;SDS011;5175;42.606;23.388;2023-05-07T08:07:29;9.45;;;8.55;;
10260;SDS011;5175;42.606;23.388;2023-05-07T08:09:55;9.25;;;8.38;;
10260;SDS011;5175;42.606;23.388;2023-05-07T08:12:22;8.95;;;8.10;;
10260;SDS011;5175;42.606;23.388;2023-05-07T08:14:50;8.93;;;8.13;;
10260;SDS011;5175;42.606;23.388;2023-05-07T08:17:17;8.68;;;7.88;;
10260;SDS011;5175;42.606;23.388;2023-05-07T08:19:47;8.55;;;7.63;;
10260;SDS011;5175;42.606;23.388;2023-05-07T08:22:13;8.35;;;7.55;;
10260;SDS011;5175;42.606;23.388;2023-05-07T08:24:42;8.35;;;7.55;;
10260;SDS011;5175;42.606;23.388;2023-05-07T08:27:12;8.57;;;7.72;;
10260;SDS011;5175;42.606;23.388;2023-05-07T08:29:38;8.27;;;7.47;;
10260;SDS011;5175;42.606;23.388;2023-05-07T08:32:07;7.53;;;6.82;;
10260;SDS011;5175;42.606;23.388;2023-05-07T08:34:33;9.23;;;7.75;;
10260;SDS011;5175;42.606;23.388;2023-05-07T08:37:00;8.23;;;7.20;;
10260;SDS011;5175;42.606;23.388;2023-05-07T08:39:27;10.75;;;7.32;;
10260;SDS011;5175;42.606;23.388;2023-05-07T08:41:55;8.98;;;7.47;;
10260;SDS011;5175;42.606;23.388;2023-05-07T08:44:23;7.50;;;6.80;;
10260;SDS011;5175;42.606;23.388;2023-05-07T08:46:53;7.38;;;6.63;;
10260;SDS011;5175;42.606;23.388;2023-05-07T08:49:23;6.90;;;6.25;;
10260;SDS011;5175;42.606;23.388;2023-05-07T08:51:50;7.63;;;6.32;;
10260;SDS011;5175;42.606;23.388;2023-05-07T08:54:16;7.20;;;6.15;;
10260;SDS011;5175;42.606;23.388;2023-05-07T08:56:44;10.20;;;8.07;;
10260;SDS011;5175;42.606;23.388;2023-05-07T08:59:11;7.63;;;6.22;;
10260;SDS011;5175;42.606;23.388;2023-05-07T09:01:38;6.63;;;5.18;;
10260;SDS011;5175;42.606;23.388;2023-05-07T09:04:05;7.60;;;6.07;;
10260;SDS011;5175;42.606;23.388;2023-05-07T09:06:34;7.20;;;5.70;;
10260;SDS011;5175;42.606;23.388;2023-05-07T09:09:06;7.18;;;6.50;;
10260;SDS011;5175;42.606;23.388;2023-05-07T09:11:33;7.28;;;6.57;;
10260;SDS011;5175;42.606;23.388;2023-05-07T09:14:00;8.20;;;6.65;;
10260;SDS011;5175;42.606;23.388;2023-05-07T09:16:28;7.75;;;6.95;;
10260;SDS011;5175;42.606;23.388;2023-05-07T09:18:57;8.95;;;5.95;;
10260;SDS011;5175;42.606;23.388;2023-05-07T09:21:25;6.35;;;5.30;;
10260;SDS011;5175;42.606;23.388;2023-05-07T09:23:54;6.05;;;5.45;;
10260;SDS011;5175;42.606;23.388;2023-05-07T09:26:22;5.88;;;5.38;;
10260;SDS011;5175;42.606;23.388;2023-05-07T09:28:49;5.70;;;5.20;;
10260;SDS011;5175;42.606;23.388;2023-05-07T09:31:16;6.05;;;4.72;;
10260;SDS011;5175;42.606;23.388;2023-05-07T09:33:43;7.88;;;5.00;;
10260;SDS011;5175;42.606;23.388;2023-05-07T09:36:11;10.02;;;5.68;;
10260;SDS011;5175;42.606;23.388;2023-05-07T09:38:38;5.95;;;5.40;;
10260;SDS011;5175;42.606;23.388;2023-05-07T09:41:07;6.85;;;5.72;;
10260;SDS011;5175;42.606;23.388;2023-05-07T09:43:35;9.32;;;8.27;;
10260;SDS011;5175;42.606;23.388;2023-05-07T09:46:03;6.38;;;4.85;;
10260;SDS011;5175;42.606;23.388;2023-05-07T09:48:35;5.80;;;4.65;;
10260;SDS011;5175;42.606;23.388;2023-05-07T09:51:05;7.25;;;5.72;;
10260;SDS011;5175;42.606;23.388;2023-05-07T09:53:41;9.18;;;5.70;;
10260;SDS011;5175;42.606;23.388;2023-05-07T09:56:12;5.40;;;4.88;;
10260;SDS011;5175;42.606;23.388;2023-05-07T09:58:40;5.82;;;4.75;;
10260;SDS011;5175;42.606;23.388;2023-05-07T10:01:08;5.47;;;4.50;;
10260;SDS011;5175;42.606;23.388;2023-05-07T10:03:36;6.38;;;4.75;;
10260;SDS011;5175;42.606;23.388;2023-05-07T10:06:05;5.25;;;4.75;;
10260;SDS011;5175;42.606;23.388;2023-05-07T10:08:34;4.63;;;4.20;;
10260;SDS011;5175;42.606;23.388;2023-05-07T10:11:03;4.45;;;4.05;;
10260;SDS011;5175;42.606;23.388;2023-05-07T10:13:32;5.55;;;4.53;;
10260;SDS011;5175;42.606;23.388;2023-05-07T10:16:01;5.72;;;4.43;;
10260;SDS011;5175;42.606;23.388;2023-05-07T10:18:29;6.53;;;4.78;;
10260;SDS011;5175;42.606;23.388;2023-05-07T10:20:59;5.00;;;4.47;;
10260;SDS011;5175;42.606;23.388;2023-05-07T10:23:30;5.15;;;4.65;;
10260;SDS011;5175;42.606;23.388;2023-05-07T10:25:58;4.57;;;4.07;;
10260;SDS011;5175;42.606;23.388;2023-05-07T10:28:27;5.75;;;4.30;;
10260;SDS011;5175;42.606;23.388;2023-05-07T10:31:01;4.78;;;4.28;;
10260;SDS011;5175;42.606;23.388;2023-05-07T10:33:45;5.22;;;4.07;;
10260;SDS011;5175;42.606;23.388;2023-05-07T10:36:15;4.70;;;4.30;;
10260;SDS011;5175;42.606;23.388;2023-05-07T10:38:42;5.57;;;4.50;;
10260;SDS011;5175;42.606;23.388;2023-05-07T10:41:10;6.32;;;4.72;;
10260;SDS011;5175;42.606;23.388;2023-05-07T10:43:38;5.65;;;4.28;;
10260;SDS011;5175;42.606;23.388;2023-05-07T10:46:15;4.90;;;4.15;;
10260;SDS011;5175;42.606;23.388;2023-05-07T10:51:43;6.25;;;4.35;;
10260;SDS011;5175;42.606;23.388;2023-05-07T10:54:21;4.55;;;4.15;;
10260;SDS011;5175;42.606;23.388;2023-05-07T10:56:50;4.88;;;4.38;;
10260;SDS011;5175;42.606;23.388;2023-05-07T10:59:33;4.30;;;4.00;;
10260;SDS011;5175;42.606;23.388;2023-05-07T11:02:08;4.82;;;4.40;;
10260;SDS011;5175;42.606;23.388;2023-05-07T11:04:36;4.80;;;4.40;;
10260;SDS011;5175;42.606;23.388;2023-05-07T11:07:25;4.65;;;4.25;;
10260;SDS011;5175;42.606;23.388;2023-05-07T11:09:56;5.70;;;4.30;;
10260;SDS011;5175;42.606;23.388;2023-05-07T11:12:50;5.85;;;4.60;;
10260;SDS011;5175;42.606;23.388;2023-05-07T11:15:34;4.72;;;4.30;;
10260;SDS011;5175;42.606;23.388;2023-05-07T11:18:11;5.30;;;4.65;;
10260;SDS011;5175;42.606;23.388;2023-05-07T11:20:52;5.07;;;4.68;;
10260;SDS011;5175;42.606;23.388;2023-05-07T11:26:24;6.43;;;4.65;;
10260;SDS011;5175;42.606;23.388;2023-05-07T11:28:51;5.95;;;4.88;;
10260;SDS011;5175;42.606;23.388;2023-05-07T11:31:23;6.45;;;5.15;;
10260;SDS011;5175;42.606;23.388;2023-05-07T11:33:53;5.13;;;4.72;;
10260;SDS011;5175;42.606;23.388;2023-05-07T11:36:22;5.28;;;4.50;;
10260;SDS011;5175;42.606;23.388;2023-05-07T11:38:51;5.68;;;4.95;;
10260;SDS011;5175;42.606;23.388;2023-05-07T11:41:18;5.28;;;4.78;;
10260;SDS011;5175;42.606;23.388;2023-05-07T11:43:58;4.75;;;4.35;;
10260;SDS011;5175;42.606;23.388;2023-05-07T11:46:26;5.53;;;4.93;;
10260;SDS011;5175;42.606;23.388;2023-05-07T11:49:01;5.38;;;4.88;;
10260;SDS011;5175;42.606;23.388;2023-05-07T11:51:28;5.63;;;4.72;;
10260;SDS011;5175;42.606;23.388;2023-05-07T11:53:55;5.32;;;4.82;;
10260;SDS011;5175;42.606;23.388;2023-05-07T11:56:21;5.80;;;4.75;;
10260;SDS011;5175;42.606;23.388;2023-05-07T11:58:49;5.47;;;4.82;;
10260;SDS011;5175;42.606;23.388;2023-05-07T12:01:17;5.05;;;4.53;;
10260;SDS011;5175;42.606;23.388;2023-05-07T12:03:44;4.72;;;4.32;;
10260;SDS011;5175;42.606;23.388;2023-05-07T12:06:13;5.70;;;4.80;;
10260;SDS011;5175;42.606;23.388;2023-05-07T12:08:42;5.20;;;4.63;;
10260;SDS011;5175;42.606;23.388;2023-05-07T12:11:10;6.57;;;4.40;;
10260;SDS011;5175;42.606;23.388;2023-05-07T12:13:40;5.22;;;4.80;;
10260;SDS011;5175;42.606;23.388;2023-05-07T12:16:07;5.30;;;4.50;;
10260;SDS011;5175;42.606;23.388;2023-05-07T12:18:35;4.80;;;4.40;;
10260;SDS011;5175;42.606;23.388;2023-05-07T12:21:03;6.22;;;4.85;;
10260;SDS011;5175;42.606;23.388;2023-05-07T12:23:32;4.70;;;4.30;;
10260;SDS011;5175;42.606;23.388;2023-05-07T12:26:00;4.88;;;4.47;;
10260;SDS011;5175;42.606;23.388;2023-05-07T12:28:27;6.80;;;4.50;;
10260;SDS011;5175;42.606;23.388;2023-05-07T12:30:55;6.22;;;4.63;;
10260;SDS011;5175;42.606;23.388;2023-05-07T12:33:24;4.82;;;4.43;;
10260;SDS011;5175;42.606;23.388;2023-05-07T12:35:54;5.45;;;4.80;;
10260;SDS011;5175;42.606;23.388;2023-05-07T12:38:24;4.70;;;4.30;;
10260;SDS011;5175;42.606;23.388;2023-05-07T12:40:54;5.10;;;4.53;;
10260;SDS011;5175;42.606;23.388;2023-05-07T12:43:21;5.20;;;4.70;;
10260;SDS011;5175;42.606;23.388;2023-05-07T12:45:52;5.07;;;4.45;;
10260;SDS011;5175;42.606;23.388;2023-05-07T12:48:20;4.60;;;4.20;;
10260;SDS011;5175;42.606;23.388;2023-05-07T12:50:49;4.80;;;4.40;;
10260;SDS011;5175;42.606;23.388;2023-05-07T12:53:16;5.00;;;4.25;;
10260;SDS011;5175;42.606;23.388;2023-05-07T13:16:09;4.40;;;4.00;;
10260;SDS011;5175;42.606;23.388;2023-05-07T13:18:37;4.22;;;3.92;;
10260;SDS011;5175;42.606;23.388;2023-05-07T13:21:05;5.03;;;4.47;;
10260;SDS011;5175;42.606;23.388;2023-05-07T13:23:33;4.45;;;4.10;;
10260;SDS011;5175;42.606;23.388;2023-05-07T13:26:00;4.88;;;4.15;;
10260;SDS011;5175;42.606;23.388;2023-05-07T13:28:27;3.90;;;3.42;;
10260;SDS011;5175;42.606;23.388;2023-05-07T13:30:54;4.22;;;3.90;;
10260;SDS011;5175;42.606;23.388;2023-05-07T13:33:22;5.57;;;3.97;;
10260;SDS011;5175;42.606;23.388;2023-05-07T13:35:49;6.28;;;3.78;;
10260;SDS011;5175;42.606;23.388;2023-05-07T13:38:16;4.00;;;3.60;;
10260;SDS011;5175;42.606;23.388;2023-05-07T13:40:43;4.13;;;3.40;;
10260;SDS011;5175;42.606;23.388;2023-05-07T13:43:09;3.67;;;3.38;;
10260;SDS011;5175;42.606;23.388;2023-05-07T13:45:36;3.92;;;3.60;;
10260;SDS011;5175;42.606;23.388;2023-05-07T13:48:03;3.92;;;3.63;;
10260;SDS011;5175;42.606;23.388;2023-05-07T13:50:32;6.40;;;3.70;;
10260;SDS011;5175;42.606;23.388;2023-05-07T13:52:58;2.90;;;2.65;;
10260;SDS011;5175;42.606;23.388;2023-05-07T13:55:25;4.65;;;3.28;;
10260;SDS011;5175;42.606;23.388;2023-05-07T13:57:56;3.60;;;3.30;;
10260;SDS011;5175;42.606;23.388;2023-05-07T14:00:23;3.35;;;3.05;;
10260;SDS011;5175;42.606;23.388;2023-05-07T14:02:50;4.18;;;3.17;;
10260;SDS011;5175;42.606;23.388;2023-05-07T14:05:17;3.08;;;2.70;;
10260;SDS011;5175;42.606;23.388;2023-05-07T14:07:45;4.30;;;3.28;;
10260;SDS011;5175;42.606;23.388;2023-05-07T14:10:14;3.42;;;3.13;;
10260;SDS011;5175;42.606;23.388;2023-05-07T14:12:41;3.53;;;3.22;;
10260;SDS011;5175;42.606;23.388;2023-05-07T14:15:08;3.38;;;3.08;;
10260;SDS011;5175;42.606;23.388;2023-05-07T14:17:35;3.65;;;3.22;;
10260;SDS011;5175;42.606;23.388;2023-05-07T14:20:02;3.45;;;3.15;;
10260;SDS011;5175;42.606;23.388;2023-05-07T14:22:31;3.53;;;3.15;;
10260;SDS011;5175;42.606;23.388;2023-05-07T14:24:59;3.78;;;3.47;;
10260;SDS011;5175;42.606;23.388;2023-05-07T14:27:26;3.35;;;2.80;;
10260;SDS011;5175;42.606;23.388;2023-05-07T14:29:53;3.78;;;3.20;;
10260;SDS011;5175;42.606;23.388;2023-05-07T14:32:20;3.30;;;3.00;;
10260;SDS011;5175;42.606;23.388;2023-05-07T14:34:47;2.83;;;2.60;;
10260;SDS011;5175;42.606;23.388;2023-05-07T14:37:14;3.75;;;3.08;;
10260;SDS011;5175;42.606;23.388;2023-05-07T14:39:40;2.95;;;2.75;;
10260;SDS011;5175;42.606;23.388;2023-05-07T14:42:09;3.30;;;3.00;;
10260;SDS011;5175;42.606;23.388;2023-05-07T14:44:36;3.05;;;2.70;;
10260;SDS011;5175;42.606;23.388;2023-05-07T14:47:05;3.58;;;3.20;;
10260;SDS011;5175;42.606;23.388;2023-05-07T14:49:32;3.45;;;3.15;;
10260;SDS011;5175;42.606;23.388;2023-05-07T14:51:59;2.90;;;2.60;;
10260;SDS011;5175;42.606;23.388;2023-05-07T14:54:26;5.10;;;2.92;;
10260;SDS011;5175;42.606;23.388;2023-05-07T14:56:54;3.10;;;2.80;;
10260;SDS011;5175;42.606;23.388;2023-05-07T14:59:23;3.25;;;2.85;;
10260;SDS011;5175;42.606;23.388;2023-05-07T15:01:50;3.25;;;2.90;;
10260;SDS011;5175;42.606;23.388;2023-05-07T15:04:17;5.68;;;2.90;;
10260;SDS011;5175;42.606;23.388;2023-05-07T15:06:43;2.83;;;2.58;;
10260;SDS011;5175;42.606;23.388;2023-05-07T15:09:11;3.20;;;2.90;;
10260;SDS011;5175;42.606;23.388;2023-05-07T15:11:38;3.17;;;2.95;;